Time;durP1;ratioP1;P1;durP2;ratioP2;P2;SDS_P1;SDS_P2;PMS_P1;PMS_P2;Temp;Humidity;BMP_temperature;BMP_pressure;BME280_temperature;BME280_humidity;BME280_pressure;Samples;Min_cycle;Max_cycle;Signal;HPM_P1;HPM_P2
2022/09/05 00:01:10;;;;;;;9.43;4.40;;;;;;;15.94;100.00;101689.72;5219601;28;20050;-68
2022/09/05 00:03:53;;;;;;;9.13;4.43;;;;;;;15.90;100.00;101688.25;5225898;28;20364;-68
2022/09/05 00:06:31;;;;;;;10.48;5.20;;;;;;;15.79;99.88;101687.34;5220732;28;20367;-68
2022/09/05 00:09:22;;;;;;;11.30;4.82;;;;;;;15.89;100.00;101684.72;5248281;28;20116;-66
2022/09/05 00:11:59;;;;;;;13.80;4.90;;;;;;;15.85;100.00;101683.28;5217646;28;20572;-65
2022/09/05 00:15:08;;;;;;;10.43;4.35;;;;;;;15.81;100.00;101693.44;5218978;28;20029;-66
2022/09/05 00:18:15;;;;;;;13.05;4.93;;;;;;;15.76;100.00;101686.75;5215655;28;20036;-66
2022/09/05 00:20:55;;;;;;;13.55;5.20;;;;;;;15.69;100.00;101683.72;5225969;28;20021;-66
2022/09/05 00:23:42;;;;;;;13.13;4.93;;;;;;;15.75;100.00;101690.44;5230761;28;20037;-66
2022/09/05 00:26:22;;;;;;;9.25;4.75;;;;;;;15.67;100.00;101683.00;5230813;28;20433;-67
2022/09/05 00:29:23;;;;;;;12.52;5.30;;;;;;;15.67;100.00;101683.00;5232247;28;20461;-68
2022/09/05 00:32:22;;;;;;;14.43;5.28;;;;;;;15.65;100.00;101682.28;5227815;28;20230;-67
2022/09/05 00:35:12;;;;;;;10.90;4.70;;;;;;;15.63;100.00;101682.41;5227091;28;20029;-67
2022/09/05 00:37:47;;;;;;;12.15;4.80;;;;;;;15.60;100.00;101684.47;5229996;28;20587;-67
2022/09/05 00:40:24;;;;;;;14.15;4.80;;;;;;;15.50;100.00;101681.72;5227494;28;20099;-66
2022/09/05 00:43:11;;;;;;;12.65;4.93;;;;;;;15.56;100.00;101685.72;5233082;28;20057;-66
2022/09/05 00:45:57;;;;;;;11.70;4.70;;;;;;;15.53;100.00;101683.28;5227079;28;20037;-67
2022/09/05 00:48:54;;;;;;;10.85;5.40;;;;;;;15.44;100.00;101684.94;5230880;28;20025;-67
2022/09/05 00:51:43;;;;;;;11.15;5.07;;;;;;;15.43;100.00;101684.06;5228910;28;20120;-67
2022/09/05 00:54:29;;;;;;;12.77;5.28;;;;;;;15.45;100.00;101675.88;5222425;28;20768;-66
2022/09/05 00:57:30;;;;;;;11.23;5.80;;;;;;;15.42;100.00;101678.84;5219714;28;20044;-67
2022/09/05 01:00:12;;;;;;;10.77;5.43;;;;;;;15.41;100.00;101675.25;5232132;28;20032;-67
2022/09/05 01:02:51;;;;;;;11.95;5.50;;;;;;;15.33;100.00;101677.75;5229960;28;20037;-67
2022/09/05 01:05:42;;;;;;;10.95;5.60;;;;;;;15.35;100.00;101675.78;5224158;28;20121;-68
2022/09/05 01:08:29;;;;;;;12.63;5.75;;;;;;;15.33;100.00;101671.53;5228692;28;20084;-67
2022/09/05 01:11:31;;;;;;;13.10;5.65;;;;;;;15.32;100.00;101675.19;5228672;28;20037;-67
2022/09/05 01:14:24;;;;;;;10.70;5.50;;;;;;;15.29;100.00;101668.25;5223447;28;20121;-67
2022/09/05 01:17:34;;;;;;;12.15;5.75;;;;;;;15.24;100.00;101678.50;5218115;28;20872;-67
2022/09/05 01:20:34;;;;;;;10.73;5.78;;;;;;;15.22;100.00;101680.47;5220973;28;20163;-68
2022/09/05 01:23:16;;;;;;;11.95;5.70;;;;;;;15.20;100.00;101677.06;5224776;28;20483;-67
2022/09/05 01:26:06;;;;;;;9.02;5.40;;;;;;;15.19;100.00;101678.06;5230748;28;20032;-67
2022/09/05 01:29:00;;;;;;;11.60;5.55;;;;;;;15.13;100.00;101683.91;5229237;28;20021;-67
2022/09/05 01:32:07;;;;;;;9.93;5.93;;;;;;;15.17;100.00;101678.19;5225268;28;20382;-67
2022/09/05 01:35:03;;;;;;;9.40;5.82;;;;;;;15.05;100.00;101682.75;5232060;28;20043;-68
2022/09/05 01:37:47;;;;;;;10.07;5.80;;;;;;;15.06;100.00;101681.75;5228856;28;20441;-68
2022/09/05 01:40:24;;;;;;;;;;;;;;;15.15;100.00;101681.94;5232401;28;20025;-68
2022/09/05 01:43:28;;;;;;;8.23;5.80;;;;;;;15.01;100.00;101675.88;5224333;28;19918;-67
2022/09/05 01:46:38;;;;;;;10.68;6.47;;;;;;;15.00;100.00;101670.66;5230168;28;20053;-68
2022/09/05 01:49:47;;;;;;;10.02;5.97;;;;;;;15.01;100.00;101673.19;5228865;28;20040;-68
2022/09/05 01:52:45;;;;;;;10.23;6.15;;;;;;;14.93;100.00;101672.97;5220547;28;20382;-67
2022/09/05 01:55:43;;;;;;;10.05;5.78;;;;;;;14.92;100.00;101665.91;5227934;28;20774;-68
2022/09/05 01:58:38;;;;;;;10.23;5.97;;;;;;;14.88;100.00;101669.81;5224661;28;20037;-67
2022/09/05 02:01:23;;;;;;;10.30;6.38;;;;;;;14.88;100.00;101677.84;5220588;28;20372;-69
2022/09/05 02:04:34;;;;;;;9.30;5.88;;;;;;;14.85;100.00;101673.59;5229086;28;20616;-67
2022/09/05 02:07:15;;;;;;;11.23;6.20;;;;;;;14.78;100.00;101668.84;5225361;28;20042;-68
2022/09/05 02:10:03;;;;;;;10.27;6.25;;;;;;;14.83;100.00;101674.72;5225491;28;20090;-67
2022/09/05 02:12:47;;;;;;;12.68;6.47;;;;;;;14.84;100.00;101673.72;5219092;28;20040;-67
2022/09/05 02:15:24;;;;;;;10.88;6.72;;;;;;;14.80;100.00;101669.56;5231765;28;20025;-67
2022/09/05 02:18:01;;;;;;;7.93;5.97;;;;;;;14.81;100.00;101674.00;5221453;28;20055;-68
2022/09/05 02:20:46;;;;;;;9.95;7.05;;;;;;;14.77;100.00;101685.97;5224475;28;20034;-67
2022/09/05 02:23:17;;;;;;;12.45;6.10;;;;;;;14.77;100.00;101675.22;5220799;28;20446;-67
2022/09/05 02:25:57;;;;;;;13.27;6.55;;;;;;;14.77;100.00;101680.59;5218449;28;20041;-68
2022/09/05 02:28:48;;;;;;;9.07;6.97;;;;;;;14.70;100.00;101681.06;5225862;28;20040;-67
2022/09/05 02:31:27;;;;;;;8.73;6.35;;;;;;;14.68;100.00;101684.88;5224712;28;20034;-67
2022/09/05 02:34:10;;;;;;;10.38;6.47;;;;;;;14.66;100.00;101693.03;5227004;28;20033;-67
2022/09/05 02:36:53;;;;;;;13.23;6.88;;;;;;;14.65;100.00;101683.28;5229166;28;20064;-68
2022/09/05 02:39:31;;;;;;;12.38;6.30;;;;;;;14.67;100.00;101684.03;5223048;28;20475;-68
2022/09/05 02:42:24;;;;;;;11.48;7.00;;;;;;;14.62;100.00;101690.75;5226982;28;20469;-67
2022/09/05 02:45:02;;;;;;;10.95;6.82;;;;;;;14.68;100.00;101690.25;5232897;28;20121;-67
2022/09/05 02:47:48;;;;;;;10.88;6.60;;;;;;;14.55;100.00;101682.25;5232291;28;20083;-67
2022/09/05 02:50:34;;;;;;;10.18;6.68;;;;;;;14.60;100.00;101679.25;5235421;28;20033;-68
2022/09/05 02:53:09;;;;;;;11.10;7.03;;;;;;;14.63;100.00;101682.56;5226688;28;20057;-67
2022/09/05 02:56:11;;;;;;;11.07;7.00;;;;;;;14.58;100.00;101690.13;5232723;28;20534;-67
2022/09/05 02:58:57;;;;;;;14.63;6.70;;;;;;;14.57;100.00;101677.66;5233121;28;20122;-67
2022/09/05 03:01:37;;;;;;;14.15;6.70;;;;;;;14.50;100.00;101685.34;5227955;28;20029;-69
2022/09/05 03:04:12;;;;;;;11.00;7.00;;;;;;;14.54;100.00;101685.09;5231537;28;20047;-68
2022/09/05 03:06:54;;;;;;;12.65;6.10;;;;;;;14.44;100.00;101682.25;5234116;28;20550;-67
2022/09/05 03:09:56;;;;;;;12.70;6.28;;;;;;;14.46;100.00;101691.09;5229292;28;20041;-67
2022/09/05 03:13:08;;;;;;;11.10;6.55;;;;;;;14.43;100.00;101686.78;5219849;28;21046;-68
2022/09/05 03:16:19;;;;;;;14.52;7.20;;;;;;;14.40;100.00;101681.69;5227772;28;20526;-67
2022/09/05 03:18:59;;;;;;;16.05;7.72;;;;;;;14.44;100.00;101684.94;5224734;28;20060;-67
2022/09/05 03:21:40;;;;;;;14.65;6.93;;;;;;;14.30;100.00;101686.06;5226653;28;20112;-67
2022/09/05 03:24:51;;;;;;;10.63;6.85;;;;;;;14.32;100.00;101684.09;5218072;28;20045;-67
2022/09/05 03:27:50;;;;;;;10.98;7.45;;;;;;;14.37;100.00;101684.59;5222384;28;20450;-67
2022/09/05 03:30:23;;;;;;;10.90;7.20;;;;;;;14.31;100.00;101683.25;5229286;28;20037;-67
2022/09/05 03:33:32;;;;;;;13.00;7.38;;;;;;;14.35;100.00;101685.72;5218298;28;20033;-67
2022/09/05 03:36:23;;;;;;;8.82;6.80;;;;;;;14.27;100.00;101672.88;5219620;28;20034;-67
2022/09/05 03:39:43;;;;;;;9.25;7.28;;;;;;;14.36;100.00;101684.72;5237196;28;20414;-67
2022/09/05 03:42:30;;;;;;;9.45;7.05;;;;;;;14.29;100.00;101679.84;5223927;28;20056;-67
2022/09/05 03:45:20;;;;;;;12.82;7.18;;;;;;;14.34;100.00;101689.34;5221502;28;20076;-67
2022/09/05 03:48:16;;;;;;;9.63;7.07;;;;;;;14.23;100.00;101683.00;5223897;28;20055;-67
2022/09/05 03:51:13;;;;;;;9.90;6.68;;;;;;;14.24;100.00;101687.38;5221047;28;20765;-67
2022/09/05 03:54:05;;;;;;;9.23;6.70;;;;;;;14.19;100.00;101681.53;5226561;28;20083;-67
2022/09/05 03:56:57;;;;;;;11.45;6.75;;;;;;;14.14;100.00;101673.00;5226003;28;20053;-66
2022/09/05 03:59:47;;;;;;;9.35;6.88;;;;;;;14.18;100.00;101678.97;5222981;28;20113;-67
2022/09/05 04:02:23;;;;;;;12.00;7.53;;;;;;;14.22;100.00;101678.59;5227928;28;20030;-67
2022/09/05 04:05:16;;;;;;;11.15;7.60;;;;;;;14.20;100.00;101677.88;5231601;28;20044;-67
2022/09/05 04:08:05;;;;;;;11.63;7.63;;;;;;;14.10;100.00;101679.56;5221410;28;20092;-67
2022/09/05 04:11:01;;;;;;;8.90;6.93;;;;;;;14.07;100.00;101683.34;5215345;28;20035;-67
2022/09/05 04:13:36;;;;;;;12.23;7.55;;;;;;;14.16;100.00;101681.78;5226469;28;20487;-67
2022/09/05 04:16:28;;;;;;;11.55;7.72;;;;;;;14.08;100.00;101686.91;5220360;28;20031;-67
2022/09/05 04:19:18;;;;;;;9.70;6.82;;;;;;;14.09;100.00;101683.22;5218388;28;20033;-68
2022/09/05 04:22:16;;;;;;;11.55;7.68;;;;;;;14.10;100.00;101684.94;5217229;28;20831;-67
2022/09/05 04:25:17;;;;;;;10.63;7.53;;;;;;;14.05;100.00;101681.75;5226715;28;20394;-67
2022/09/05 04:28:00;;;;;;;11.98;7.70;;;;;;;14.05;100.00;101674.56;5226964;28;20029;-67
2022/09/05 04:30:46;;;;;;;11.65;7.20;;;;;;;13.98;100.00;101678.72;5226193;28;20492;-68
2022/09/05 04:33:36;;;;;;;12.75;8.07;;;;;;;14.02;100.00;101679.34;5230495;28;20037;-67
2022/09/05 04:36:13;;;;;;;11.60;8.02;;;;;;;13.89;100.00;101680.25;5227576;28;20107;-67
2022/09/05 04:39:03;;;;;;;11.13;7.95;;;;;;;13.96;100.00;101677.09;5225009;28;20025;-67
2022/09/05 04:41:43;;;;;;;11.10;7.20;;;;;;;13.95;100.00;101689.66;5229723;28;20052;-67
2022/09/05 04:44:17;;;;;;;9.40;7.43;;;;;;;13.92;100.00;101687.22;5230508;28;21262;-67
2022/09/05 04:46:55;;;;;;;11.05;7.35;;;;;;;13.86;100.00;101687.69;5224080;28;20042;-67
2022/09/05 04:49:32;;;;;;;11.63;8.25;;;;;;;13.84;100.00;101693.16;5227108;28;20152;-67
2022/09/05 04:52:42;;;;;;;11.00;8.02;;;;;;;13.86;100.00;101690.38;5219196;28;20445;-67
2022/09/05 04:55:24;;;;;;;11.43;8.35;;;;;;;13.83;100.00;101704.88;5219311;28;20029;-67
2022/09/05 04:58:00;;;;;;;13.70;8.43;;;;;;;13.81;100.00;101703.31;5217927;28;20048;-68
2022/09/05 05:01:07;;;;;;;13.45;8.48;;;;;;;13.78;100.00;101699.00;5217081;28;21267;-67
2022/09/05 05:03:38;;;;;;;13.68;8.20;;;;;;;13.75;100.00;101696.56;5222784;28;20037;-67
2022/09/05 05:06:33;;;;;;;12.20;8.13;;;;;;;13.82;100.00;101697.78;5214858;28;20271;-67
2022/09/05 05:09:53;;;;;;;12.18;8.77;;;;;;;13.84;100.00;101703.06;5219005;28;20116;-67
2022/09/05 05:12:55;;;;;;;11.95;8.45;;;;;;;13.86;100.00;101712.69;5230490;28;20068;-67
2022/09/05 05:15:28;;;;;;;12.90;8.13;;;;;;;13.79;100.00;101707.91;5225136;28;20368;-67
2022/09/05 05:18:34;;;;;;;11.70;8.65;;;;;;;13.80;100.00;101704.25;5222134;28;20067;-67
2022/09/05 05:21:15;;;;;;;12.85;9.02;;;;;;;13.83;100.00;101706.72;5220160;28;20406;-67
2022/09/05 05:23:49;;;;;;;10.48;8.40;;;;;;;13.84;100.00;101693.16;5222052;28;20021;-67
2022/09/05 05:26:34;;;;;;;14.10;8.50;;;;;;;13.82;100.00;101707.69;5221977;28;20551;-67
2022/09/05 05:29:19;;;;;;;13.20;9.00;;;;;;;13.84;100.00;101711.09;5218415;28;20034;-67
2022/09/05 05:31:53;;;;;;;13.88;8.27;;;;;;;13.89;100.00;101719.66;5216867;28;20222;-67
2022/09/05 05:34:40;;;;;;;11.80;8.10;;;;;;;13.89;100.00;101706.25;5220016;28;20025;-67
2022/09/05 05:37:23;;;;;;;10.32;8.07;;;;;;;13.85;100.00;101712.81;5217217;28;20771;-67
2022/09/05 05:39:58;;;;;;;13.98;8.75;;;;;;;13.84;100.00;101709.25;5220874;28;20109;-67
2022/09/05 05:42:29;;;;;;;10.88;8.02;;;;;;;13.90;100.00;101707.94;5224496;28;20052;-67
2022/09/05 05:45:02;;;;;;;11.07;8.38;;;;;;;13.91;100.00;101710.50;5217680;28;20026;-67
2022/09/05 05:47:41;;;;;;;10.25;7.88;;;;;;;13.90;100.00;101708.81;5219099;28;20051;-67
2022/09/05 05:50:56;;;;;;;10.93;8.25;;;;;;;14.01;100.00;101712.50;5219952;28;20045;-67
2022/09/05 05:53:52;;;;;;;13.32;9.15;;;;;;;14.00;100.00;101710.75;5225168;28;20580;-67
2022/09/05 05:56:37;;;;;;;12.07;8.70;;;;;;;14.03;100.00;101719.44;5225063;28;20061;-67
2022/09/05 05:59:41;;;;;;;12.20;9.63;;;;;;;14.03;100.00;101718.59;5223989;28;20033;-67
2022/09/05 06:02:49;;;;;;;12.07;9.52;;;;;;;14.12;100.00;101718.72;5231852;28;20471;-67
2022/09/05 06:05:49;;;;;;;12.73;9.57;;;;;;;14.15;100.00;101723.00;5217571;28;20021;-67
2022/09/05 06:08:44;;;;;;;13.73;9.70;;;;;;;14.19;100.00;101731.66;5203834;28;20033;-67
2022/09/05 06:12:02;;;;;;;14.00;9.85;;;;;;;14.26;100.00;101731.06;5212254;28;21323;-70
2022/09/05 06:15:13;;;;;;;19.08;10.10;;;;;;;14.30;100.00;101734.38;5218712;28;20144;-68
2022/09/05 06:18:18;;;;;;;12.05;9.73;;;;;;;14.34;100.00;101740.34;5227850;28;20037;-67
2022/09/05 06:21:19;;;;;;;15.10;10.90;;;;;;;14.38;100.00;101742.69;5229696;28;20402;-67
2022/09/05 06:24:31;;;;;;;14.15;9.93;;;;;;;14.48;100.00;101734.78;5228001;28;20049;-67
2022/09/05 06:27:24;;;;;;;12.73;10.82;;;;;;;14.61;100.00;101740.03;5204981;28;20046;-68
2022/09/05 06:30:19;;;;;;;15.27;10.57;;;;;;;14.65;100.00;101742.38;5222431;28;20029;-67
2022/09/05 06:33:26;;;;;;;14.15;11.02;;;;;;;14.70;100.00;101732.09;5228055;28;20024;-68
2022/09/05 06:36:13;;;;;;;13.30;10.82;;;;;;;14.81;100.00;101739.31;5230134;28;20546;-68
2022/09/05 06:39:17;;;;;;;15.20;10.40;;;;;;;14.90;100.00;101746.63;5218198;28;20577;-67
2022/09/05 06:42:12;;;;;;;12.20;10.13;;;;;;;15.04;100.00;101744.69;5224550;28;20515;-67
2022/09/05 06:45:07;;;;;;;17.98;11.15;;;;;;;15.18;100.00;101738.16;5216113;28;20088;-67
2022/09/05 06:47:43;;;;;;;11.77;10.25;;;;;;;15.28;100.00;101736.41;5219862;28;20371;-67
2022/09/05 06:50:22;;;;;;;15.98;10.93;;;;;;;15.51;100.00;101741.75;5218396;28;20029;-67
2022/09/05 06:53:21;;;;;;;12.77;9.75;;;;;;;15.58;100.00;101746.47;5217852;28;20029;-67
2022/09/05 06:56:24;;;;;;;11.45;8.73;;;;;;;15.76;100.00;101737.88;5221531;28;20111;-67
2022/09/05 06:59:14;;;;;;;12.98;8.77;;;;;;;15.99;100.00;101735.91;5212984;28;20038;-67
2022/09/05 07:01:55;;;;;;;10.52;7.93;;;;;;;16.11;100.00;101742.97;5216327;28;20052;-66
2022/09/05 07:04:49;;;;;;;12.45;8.40;;;;;;;16.19;100.00;101731.53;5217154;28;20060;-67
2022/09/05 07:07:31;;;;;;;11.02;7.38;;;;;;;16.31;100.00;101745.78;5215081;28;20037;-67
2022/09/05 07:10:26;;;;;;;10.20;7.53;;;;;;;16.48;100.00;101750.53;5220864;28;20491;-67
2022/09/05 07:13:15;;;;;;;;;;;;;;;16.51;100.00;101746.72;5220757;28;20824;-68
2022/09/05 07:16:01;;;;;;;11.98;7.38;;;;;;;16.79;98.88;101754.09;5224007;28;20428;-67
2022/09/05 07:19:03;;;;;;;9.68;7.50;;;;;;;16.94;99.08;101751.06;5225825;28;20068;-67
2022/09/05 07:21:59;;;;;;;15.30;7.63;;;;;;;17.13;96.57;101752.97;5229134;28;20113;-67
2022/09/05 07:24:37;;;;;;;10.05;6.65;;;;;;;17.17;96.82;101746.31;5229152;28;20136;-67
2022/09/05 07:27:11;;;;;;;10.13;6.05;;;;;;;17.30;94.89;101749.59;5228139;28;20586;-67
2022/09/05 07:29:46;;;;;;;8.75;5.60;;;;;;;17.25;97.06;101751.84;5225825;28;20091;-67
2022/09/05 07:32:17;;;;;;;8.82;5.03;;;;;;;17.57;92.71;101751.63;5228395;28;20029;-67
2022/09/05 07:34:50;;;;;;;9.02;5.07;;;;;;;17.59;94.55;101763.13;5222742;28;20612;-66
2022/09/05 07:37:26;;;;;;;7.70;4.93;;;;;;;17.91;89.49;101766.56;5231992;28;20064;-67
2022/09/05 07:39:59;;;;;;;8.60;4.43;;;;;;;18.08;87.35;101767.69;5228639;28;20087;-67
2022/09/05 07:42:40;;;;;;;7.97;3.95;;;;;;;18.14;88.19;101765.28;5228038;28;20357;-66
2022/09/05 07:45:20;;;;;;;8.52;3.60;;;;;;;18.39;84.81;101763.78;5228155;28;20033;-66
2022/09/05 07:48:02;;;;;;;4.80;3.17;;;;;;;18.37;87.03;101767.63;5224553;28;20060;-66
2022/09/05 07:50:59;;;;;;;8.48;3.53;;;;;;;18.52;86.34;101770.72;5258021;28;20091;-66
2022/09/05 07:53:35;;;;;;;7.05;3.17;;;;;;;18.71;83.45;101767.94;5227671;28;20036;-66
2022/09/05 07:56:09;;;;;;;7.95;2.90;;;;;;;18.90;83.66;101772.44;5227257;28;20147;-66
2022/09/05 07:58:43;;;;;;;;;;;;;;;18.82;89.27;101769.66;5231172;28;20029;-66
2022/09/05 08:01:17;;;;;;;6.38;2.95;;;;;;;19.17;82.04;101770.75;5230514;28;20015;-66
2022/09/05 08:03:56;;;;;;;5.40;2.70;;;;;;;19.52;77.51;101777.22;5231919;28;20449;-66
2022/09/05 08:06:27;;;;;;;8.88;3.65;;;;;;;19.43;80.01;101775.44;5223733;28;20610;-66
2022/09/05 08:09:07;;;;;;;5.50;2.70;;;;;;;19.76;77.93;101777.50;5222498;28;20033;-66
2022/09/05 08:11:40;;;;;;;5.95;2.25;;;;;;;19.91;77.18;101766.97;5229974;28;20154;-67
2022/09/05 08:14:32;;;;;;;9.45;2.47;;;;;;;20.02;77.90;101763.19;5232492;28;20021;-67
2022/09/05 08:17:07;;;;;;;6.03;2.67;;;;;;;20.24;76.01;101758.25;5226899;28;20111;-67
2022/09/05 08:19:55;;;;;;;6.25;2.60;;;;;;;20.36;74.02;101762.38;5228221;28;20071;-67
2022/09/05 08:22:33;;;;;;;4.78;2.00;;;;;;;20.50;73.94;101764.53;5228684;28;20033;-67
2022/09/05 08:25:15;;;;;;;6.10;2.17;;;;;;;20.66;73.76;101768.38;5230301;28;20734;-67
2022/09/05 08:28:05;;;;;;;3.63;2.30;;;;;;;20.82;74.58;101767.59;5230518;28;20026;-67
2022/09/05 08:30:43;;;;;;;5.60;2.10;;;;;;;21.17;69.31;101766.56;5229160;28;20033;-67
2022/09/05 08:33:21;;;;;;;5.90;2.50;;;;;;;21.39;71.35;101777.81;5230045;28;20075;-67
2022/09/05 08:36:28;;;;;;;7.70;2.58;;;;;;;21.41;73.49;101779.34;5227472;28;20021;-67
2022/09/05 08:39:01;;;;;;;7.38;2.53;;;;;;;21.77;68.67;101773.69;5224861;28;20566;-68
2022/09/05 08:41:41;;;;;;;5.75;2.15;;;;;;;21.82;66.93;101775.88;5232635;28;20064;-67
2022/09/05 08:44:31;;;;;;;6.78;2.50;;;;;;;21.88;70.14;101777.91;5232169;28;20072;-67
2022/09/05 08:47:25;;;;;;;5.90;2.10;;;;;;;22.08;67.45;101770.28;5232391;28;20033;-68
2022/09/05 08:50:24;;;;;;;5.75;2.30;;;;;;;22.24;68.02;101770.25;5230703;28;20108;-67
2022/09/05 08:53:12;;;;;;;5.72;2.20;;;;;;;22.32;67.22;101772.13;5232829;28;20033;-67
2022/09/05 08:56:00;;;;;;;7.18;2.53;;;;;;;22.49;67.51;101767.53;5228210;28;20418;-67
2022/09/05 08:58:40;;;;;;;6.18;2.40;;;;;;;22.68;63.00;101756.25;5229683;28;20620;-67
2022/09/05 09:01:32;;;;;;;5.63;2.30;;;;;;;22.71;64.76;101757.78;5224740;28;20044;-67
2022/09/05 09:04:15;;;;;;;3.78;1.70;;;;;;;22.78;64.08;101757.91;5227358;28;20038;-67
2022/09/05 09:07:08;;;;;;;4.72;2.00;;;;;;;22.84;63.32;101754.50;5222870;28;20022;-67
2022/09/05 09:09:42;;;;;;;5.63;2.17;;;;;;;22.71;64.70;101752.34;5226855;28;20587;-67
2022/09/05 09:12:46;;;;;;;5.13;1.90;;;;;;;22.96;65.49;101752.25;5228458;28;20029;-67
2022/09/05 09:15:56;;;;;;;3.78;1.67;;;;;;;23.09;64.49;101752.56;5226473;28;20029;-67
2022/09/05 09:18:39;;;;;;;7.75;2.00;;;;;;;23.40;61.20;101758.00;5231808;28;20140;-67
2022/09/05 09:21:49;;;;;;;6.70;1.85;;;;;;;23.34;63.41;101750.53;5223897;28;20041;-67
2022/09/05 09:24:38;;;;;;;3.17;1.95;;;;;;;23.45;63.54;101746.53;5222511;28;20379;-67
2022/09/05 09:27:50;;;;;;;3.33;1.70;;;;;;;23.44;63.88;101745.72;5229538;28;20449;-66
2022/09/05 09:30:22;;;;;;;3.83;1.33;;;;;;;23.66;58.55;101743.16;5227727;28;20082;-67
2022/09/05 09:33:00;;;;;;;6.88;2.03;;;;;;;23.68;58.76;101741.09;5222931;28;20033;-66
2022/09/05 09:36:06;;;;;;;6.97;1.75;;;;;;;23.66;60.32;101741.31;5228402;28;20021;-67
2022/09/05 09:39:08;;;;;;;5.00;1.95;;;;;;;23.88;57.85;101736.88;5228917;28;20075;-67
2022/09/05 09:42:02;;;;;;;5.20;1.75;;;;;;;24.10;56.29;101733.47;5226232;28;20042;-67
2022/09/05 09:44:52;;;;;;;4.18;1.80;;;;;;;24.11;59.09;101735.16;5231561;28;20029;-66
2022/09/05 09:47:55;;;;;;;6.22;1.70;;;;;;;24.25;58.41;101739.78;5225951;28;20040;-68
2022/09/05 09:50:32;;;;;;;3.80;1.50;;;;;;;24.43;55.91;101731.22;5228753;28;20029;-67
2022/09/05 09:53:22;;;;;;;4.47;1.50;;;;;;;24.64;56.47;101734.09;5225347;28;20048;-66
2022/09/05 09:56:31;;;;;;;6.18;1.77;;;;;;;24.60;55.55;101729.19;5221686;28;20033;-67
2022/09/05 09:59:21;;;;;;;5.07;1.70;;;;;;;24.67;55.09;101730.13;5230343;28;20433;-66
2022/09/05 10:02:23;;;;;;;4.53;1.63;;;;;;;24.93;53.40;101720.59;5225721;28;20124;-67
2022/09/05 10:05:26;;;;;;;2.72;1.30;;;;;;;24.95;54.20;101719.38;5228903;28;20025;-65
2022/09/05 10:08:04;;;;;;;5.25;1.50;;;;;;;24.97;50.68;101720.03;5228079;28;20140;-65
2022/09/05 10:10:57;;;;;;;3.08;1.25;;;;;;;25.07;50.97;101722.47;5225415;28;20043;-65
2022/09/05 10:14:05;;;;;;;4.75;1.60;;;;;;;25.18;51.71;101705.56;5222181;28;20152;-65
2022/09/05 10:16:47;;;;;;;3.67;1.33;;;;;;;25.28;50.93;101707.19;5219016;28;20378;-65
2022/09/05 10:19:33;;;;;;;3.65;1.52;;;;;;;25.34;50.62;101706.41;5223756;28;20035;-65
2022/09/05 10:22:32;;;;;;;3.60;1.70;;;;;;;25.43;50.39;101707.97;5228993;28;20036;-65
2022/09/05 10:25:34;;;;;;;4.18;1.50;;;;;;;25.42;49.89;101703.53;5230082;28;20026;-65
2022/09/05 10:28:43;;;;;;;4.70;1.48;;;;;;;25.49;50.79;101701.72;5226157;28;20049;-66
2022/09/05 10:31:21;;;;;;;3.55;1.38;;;;;;;25.47;49.07;101701.06;5219004;28;20034;-66
2022/09/05 10:34:17;;;;;;;4.35;1.60;;;;;;;25.44;49.17;101693.25;5216578;28;20407;-66
2022/09/05 10:36:58;;;;;;;4.53;1.10;;;;;;;25.77;46.87;101695.44;5220995;28;20576;-65
2022/09/05 10:39:36;;;;;;;3.10;1.42;;;;;;;25.80;47.19;101697.78;5227775;28;20048;-65
2022/09/05 10:42:24;;;;;;;3.15;1.17;;;;;;;26.04;46.12;101696.53;5228187;28;20060;-65
2022/09/05 10:44:56;;;;;;;3.38;1.50;;;;;;;26.18;45.60;101692.00;5228164;28;20072;-66
2022/09/05 10:47:40;;;;;;;3.35;1.00;;;;;;;26.17;44.49;101687.56;5231479;28;20029;-67
2022/09/05 10:50:12;;;;;;;;;;;;;;;25.95;50.69;101695.00;5223661;28;20021;-66
2022/09/05 10:52:49;;;;;;;3.67;1.33;;;;;;;26.16;46.38;101689.47;5228034;28;19979;-66
2022/09/05 10:55:45;;;;;;;3.75;1.30;;;;;;;26.35;45.85;101689.81;5228529;28;21783;-66
2022/09/05 10:58:23;;;;;;;2.30;1.10;;;;;;;26.34;43.36;101678.00;5228604;28;20132;-66
2022/09/05 11:01:02;;;;;;;3.08;1.20;;;;;;;26.59;43.35;101681.09;5227662;28;20052;-65
2022/09/05 11:04:21;;;;;;;4.15;1.27;;;;;;;26.37;46.17;101677.59;5224561;28;20064;-66
2022/09/05 11:07:06;;;;;;;4.13;1.60;;;;;;;26.33;43.06;101670.84;5231319;28;20037;-65
2022/09/05 11:09:50;;;;;;;2.65;1.10;;;;;;;26.43;44.66;101664.16;5226077;28;20025;-66
2022/09/05 11:12:36;;;;;;;3.65;1.23;;;;;;;26.39;44.46;101669.19;5227920;28;20037;-66
2022/09/05 11:15:24;;;;;;;3.85;1.30;;;;;;;26.59;43.95;101666.56;5224444;28;20034;-67
2022/09/05 11:18:08;;;;;;;4.45;1.30;;;;;;;26.85;42.75;101659.50;5226813;28;20741;-65
2022/09/05 11:21:09;;;;;;;4.10;1.25;;;;;;;26.67;44.80;101663.66;5230983;28;20482;-66
2022/09/05 11:23:45;;;;;;;2.78;1.30;;;;;;;26.83;40.33;101654.25;5232263;28;20047;-65
2022/09/05 11:26:35;;;;;;;3.58;1.40;;;;;;;26.80;41.72;101662.88;5229332;28;20075;-67
2022/09/05 11:29:23;;;;;;;3.10;1.27;;;;;;;27.11;44.22;101664.22;5236087;28;20044;-65
2022/09/05 11:32:29;;;;;;;4.13;1.38;;;;;;;27.05;45.09;101668.63;5236561;28;20036;-66
2022/09/05 11:35:14;;;;;;;4.18;1.48;;;;;;;27.12;42.01;101657.69;5238664;28;20040;-66
2022/09/05 11:37:58;;;;;;;4.47;1.40;;;;;;;26.96;43.41;101651.56;5230799;28;20024;-67
2022/09/05 11:40:55;;;;;;;3.88;1.30;;;;;;;27.10;43.99;101655.16;5230355;28;20040;-67
2022/09/05 11:43:54;;;;;;;4.35;1.33;;;;;;;27.34;42.01;101652.91;5219873;28;20091;-66
2022/09/05 11:47:14;;;;;;;2.47;1.30;;;;;;;27.28;43.90;101661.97;5222025;28;20040;-67
2022/09/05 11:49:59;;;;;;;3.92;1.30;;;;;;;27.37;41.68;101660.72;5217929;28;20181;-66
2022/09/05 11:52:53;;;;;;;2.90;1.40;;;;;;;27.56;40.55;101650.81;5217296;28;20029;-66
2022/09/05 11:55:45;;;;;;;3.85;1.27;;;;;;;27.47;42.86;101647.44;5223507;28;20025;-66
2022/09/05 11:58:54;;;;;;;4.90;1.50;;;;;;;27.58;43.45;101652.28;5225283;28;20160;-66
2022/09/05 12:02:02;;;;;;;5.18;1.63;;;;;;;27.41;43.81;101655.66;5233756;28;20059;-67
2022/09/05 12:05:24;;;;;;;4.05;1.30;;;;;;;27.43;42.39;101643.44;5230531;28;20041;-67
2022/09/05 12:08:03;;;;;;;5.30;1.50;;;;;;;27.80;39.84;101646.56;5228845;28;20036;-67
2022/09/05 12:10:50;;;;;;;4.75;1.40;;;;;;;27.83;39.02;101640.69;5225024;28;20028;-67
2022/09/05 12:13:47;;;;;;;2.67;1.10;;;;;;;27.69;40.15;101642.59;5230148;28;20383;-66
2022/09/05 12:16:38;;;;;;;3.53;1.35;;;;;;;27.95;39.32;101633.50;5225895;28;20572;-66
2022/09/05 12:19:21;;;;;;;3.92;1.25;;;;;;;27.75;39.40;101621.72;5231129;28;20082;-66
2022/09/05 12:22:07;;;;;;;3.70;1.25;;;;;;;27.93;41.66;101626.56;5234955;28;20083;-66
2022/09/05 12:25:04;;;;;;;3.90;1.25;;;;;;;27.70;42.49;101626.97;5233553;28;20045;-66
2022/09/05 12:27:37;;;;;;;2.33;1.15;;;;;;;27.94;39.63;101622.75;5221894;28;20129;-66
2022/09/05 12:30:12;;;;;;;4.30;1.30;;;;;;;27.63;41.12;101617.91;5220065;28;20049;-66
2022/09/05 12:32:50;;;;;;;3.22;1.48;;;;;;;27.93;39.77;101624.66;5236048;28;21012;-67
2022/09/05 12:35:36;;;;;;;2.58;1.30;;;;;;;27.64;41.65;101614.97;5216921;28;20588;-66
2022/09/05 12:38:34;;;;;;;2.97;1.20;;;;;;;27.67;42.14;101613.69;5225159;28;20488;-66
2022/09/05 12:41:17;;;;;;;4.13;1.20;;;;;;;27.88;42.09;101618.09;5224009;28;20067;-66
2022/09/05 12:44:00;;;;;;;3.85;1.27;;;;;;;27.95;39.98;101611.56;5226123;28;20045;-66
2022/09/05 12:46:45;;;;;;;2.63;1.77;;;;;;;27.97;39.49;101611.34;5227024;28;20037;-66
2022/09/05 12:49:32;;;;;;;2.53;1.20;;;;;;;28.25;39.51;101610.22;5226840;28;20295;-66
2022/09/05 12:52:08;;;;;;;3.47;1.50;;;;;;;28.25;40.49;101608.31;5230055;28;20038;-66
2022/09/05 12:54:47;;;;;;;3.78;1.48;;;;;;;28.21;38.45;101607.06;5230674;28;20040;-66
2022/09/05 12:57:31;;;;;;;3.08;1.33;;;;;;;28.31;40.25;101604.72;5225103;28;20222;-67